CMB848 Details

Departure: Bahrain International Airport (OBBI)
Arrival: Naval Station Rota (LERT) at N/A
Route: NARMI N697 KITOT SISIK UN697 MENLI L677 CVO A1 NOZ A1 METRU P868 ARLOS T340 EVLIB M871 XATOS UM871 SOTAX UN733 CDP R59 ALT MGA
Notes: USTRANSCOM CONTRACT FLIGHT


Current Weather Information
OBBI 230900Z 26003KT 190V340 CAVOK 36/18 Q1010 NOSIG
LERT 230900Z 29009KT 9999 FEW035 17/11 Q1013 NOSIG